aviador You're here:

CYPY Decoded Metar

FORT CHIPEWYAN in AB, CANADA
Report Time2018-06-21 21:00:00
UTC Time2018-06-21 21:49:44
Flight Rules vfr VFR
Wind060° at 13 kt
W.Decomp.*RWY 03: 12.7 kt HW 2.7 kt RCW
W.Rank060° ranks 1
Current wind is above 060° avg. (6.5)
Visibility9999 m
Phenomena:N/A
Clouds:N/A
Expected CloudBase > 4,800 ft AGL from Temp-Dew spread
CeilingNone
Temp27°C (ISA +14)
Dew Point15°C (48% RH)
Heat Index27.3°C
AAT23.9°C
QNH1011 hPa
Density Alt2,615 ft
Elevation761 ft
Report Wrong Elevation
Raw Report
CYPY 212100Z AUTO 06013KT 9SM CLR 27/15 A2986 RMK SLP115 DENSITY
ALT 2300FT=

Extra information for CYPY:More info

Metar Taf Metar & Taf Last 4 Metars F.Rules Stats Wind Profile Meteogram Temp Stats Airport Information Weather charts Add Link Nearby VenuesMetar ALERT Operation Metar Decoded Social comments